createdAt,value
2022-10-20T00:01:25.170Z,101276.41
2022-10-20T00:03:54.913Z,101277.25
2022-10-20T00:06:29.391Z,101275.56
2022-10-20T00:09:00.014Z,101276.34
2022-10-20T00:11:29.227Z,101265.75
2022-10-20T00:13:59.484Z,101274.53
2022-10-20T00:16:29.361Z,101278.22
2022-10-20T00:18:58.035Z,101280.66
2022-10-20T00:21:28.190Z,101285.13
2022-10-20T00:23:59.290Z,101284.22
2022-10-20T00:26:28.643Z,101283.91
2022-10-20T00:28:57.224Z,101298.72
2022-10-20T00:31:26.628Z,101294.03
2022-10-20T00:33:54.950Z,101289.69
2022-10-20T00:36:24.657Z,101285.69
2022-10-20T00:38:58.145Z,101283.50
2022-10-20T00:41:27.867Z,101279.19
2022-10-20T00:43:58.609Z,101274.00
2022-10-20T00:46:37.367Z,101269.50
2022-10-20T00:49:26.491Z,101276.88
2022-10-20T00:51:55.269Z,101272.50
2022-10-20T00:54:27.403Z,101277.38
2022-10-20T00:56:57.564Z,101270.94
2022-10-20T00:59:33.646Z,101269.44
2022-10-20T01:02:05.667Z,101270.03
2022-10-20T01:04:37.341Z,101279.88
2022-10-20T01:07:05.860Z,101269.78
2022-10-20T01:09:34.428Z,101268.28
2022-10-20T01:12:43.579Z,101265.41
2022-10-20T01:18:12.300Z,101263.63
2022-10-20T01:20:52.553Z,101263.50
2022-10-20T01:23:32.236Z,101262.00
2022-10-20T01:26:26.982Z,101266.28
2022-10-20T01:29:05.553Z,101265.59
2022-10-20T01:32:12.403Z,101267.38
2022-10-20T01:34:59.063Z,101264.28
2022-10-20T01:37:49.026Z,101260.72
2022-10-20T01:40:36.934Z,101262.22
2022-10-20T01:43:09.591Z,101262.31
2022-10-20T01:45:42.051Z,101265.16
2022-10-20T01:48:14.214Z,101263.81
2022-10-20T01:50:43.075Z,101252.34
2022-10-20T01:53:11.334Z,101251.03
2022-10-20T01:55:39.699Z,101248.28
2022-10-20T01:58:28.514Z,101248.72
2022-10-20T02:01:06.616Z,101244.34
2022-10-20T02:03:50.244Z,101255.13
2022-10-20T02:06:41.098Z,101255.56
2022-10-20T02:09:18.227Z,101254.16
2022-10-20T02:11:54.983Z,101256.59
2022-10-20T02:14:23.904Z,101257.66
2022-10-20T02:16:58.284Z,101252.16
2022-10-20T02:19:31.914Z,101256.50
2022-10-20T02:22:01.883Z,101259.81
2022-10-20T02:24:35.797Z,101259.31
2022-10-20T02:27:11.694Z,101265.34
2022-10-20T02:30:06.323Z,101252.75
2022-10-20T02:32:37.577Z,101258.59
2022-10-20T02:35:10.526Z,101256.06
2022-10-20T02:37:38.893Z,101258.88
2022-10-20T02:40:08.843Z,101250.06
2022-10-20T02:42:37.925Z,101248.03
2022-10-20T02:45:07.753Z,101252.59
2022-10-20T02:47:36.021Z,101248.75
2022-10-20T02:50:05.362Z,101245.94
2022-10-20T02:52:33.665Z,101252.59
2022-10-20T02:55:02.015Z,101248.91
2022-10-20T02:57:30.084Z,101243.25
2022-10-20T02:59:58.346Z,101254.34
2022-10-20T03:02:26.470Z,101254.59
2022-10-20T03:04:54.738Z,101261.47
2022-10-20T03:07:22.770Z,101269.75
2022-10-20T03:09:51.188Z,101276.03
2022-10-20T03:12:19.372Z,101278.41
2022-10-20T03:14:47.777Z,101274.13
2022-10-20T03:17:15.772Z,101280.66
2022-10-20T03:19:44.267Z,101273.94
2022-10-20T03:22:12.337Z,101270.28
2022-10-20T03:24:40.926Z,101272.34
2022-10-20T03:27:09.276Z,101278.88
2022-10-20T03:29:37.544Z,101280.00
2022-10-20T03:32:05.803Z,101282.53
2022-10-20T03:34:34.147Z,101273.63
2022-10-20T03:37:02.577Z,101271.81
2022-10-20T03:39:30.814Z,101278.19
2022-10-20T03:41:59.125Z,101278.44
2022-10-20T03:44:27.344Z,101270.28
2022-10-20T03:46:55.274Z,101276.38
2022-10-20T03:49:23.604Z,101280.28
2022-10-20T03:51:51.723Z,101281.03
2022-10-20T03:54:19.979Z,101284.13
2022-10-20T03:56:47.951Z,101291.06
2022-10-20T03:59:16.228Z,101289.09
2022-10-20T04:01:46.590Z,101297.00
2022-10-20T04:04:15.983Z,101294.28
2022-10-20T04:06:44.014Z,101295.63
2022-10-20T04:09:12.438Z,101294.75
2022-10-20T04:11:40.474Z,101283.94
2022-10-20T04:14:08.774Z,101293.09
2022-10-20T04:16:36.827Z,101296.19
2022-10-20T04:19:05.111Z,101291.38
2022-10-20T04:21:33.153Z,101297.84
2022-10-20T04:24:01.431Z,101296.94
2022-10-20T04:26:29.340Z,101295.50
2022-10-20T04:28:57.632Z,101298.59
2022-10-20T04:31:25.592Z,101300.19
2022-10-20T04:33:53.853Z,101297.25
2022-10-20T04:36:21.901Z,101301.41
2022-10-20T04:38:50.114Z,101299.50
2022-10-20T04:41:18.164Z,101290.94
2022-10-20T04:43:52.592Z,101294.88
2022-10-20T04:46:20.713Z,101299.63
2022-10-20T04:48:48.952Z,101304.19
2022-10-20T04:51:17.642Z,101300.84
2022-10-20T04:53:46.563Z,101302.38
2022-10-20T04:56:20.761Z,101299.38
2022-10-20T04:58:57.993Z,101305.59
2022-10-20T05:01:29.385Z,101305.22
2022-10-20T05:03:57.814Z,101311.03
2022-10-20T05:06:31.494Z,101304.81
2022-10-20T05:09:02.627Z,101304.47
2022-10-20T05:11:34.019Z,101305.94
2022-10-20T05:14:02.325Z,101308.78
2022-10-20T05:16:30.341Z,101304.72
2022-10-20T05:18:58.665Z,101310.13
2022-10-20T05:21:29.491Z,101305.75
2022-10-20T05:24:02.906Z,101307.50
2022-10-20T05:26:35.327Z,101310.59
2022-10-20T05:29:09.246Z,101311.47
2022-10-20T05:31:38.463Z,101299.31
2022-10-20T05:34:07.926Z,101303.88
2022-10-20T05:36:36.204Z,101305.59
2022-10-20T05:39:04.768Z,101306.06
2022-10-20T05:41:37.913Z,101303.66
2022-10-20T05:44:11.697Z,101314.91
2022-10-20T05:46:42.719Z,101304.91
2022-10-20T05:49:16.824Z,101316.16
2022-10-20T05:51:46.631Z,101313.97
2022-10-20T05:54:15.311Z,101319.25
2022-10-20T05:56:43.681Z,101323.34
2022-10-20T05:59:12.123Z,101325.13
2022-10-20T06:01:50.204Z,101330.72
2022-10-20T06:04:25.096Z,101327.94
2022-10-20T06:06:54.844Z,101332.66
2022-10-20T06:09:24.713Z,101336.56
2022-10-20T06:11:53.224Z,101338.66
2022-10-20T06:14:26.310Z,101343.66
2022-10-20T06:16:56.126Z,101348.06
2022-10-20T06:19:25.549Z,101345.25
2022-10-20T06:21:53.738Z,101354.47
2022-10-20T06:24:22.277Z,101352.84
2022-10-20T06:26:50.289Z,101354.59
2022-10-20T06:29:19.585Z,101350.03
2022-10-20T06:31:50.285Z,101351.97
2022-10-20T06:34:21.407Z,101354.09
2022-10-20T06:36:51.042Z,101355.38
2022-10-20T06:39:22.587Z,101350.09
2022-10-20T06:41:55.069Z,101354.03
2022-10-20T06:44:24.737Z,101353.44
2022-10-20T06:46:52.790Z,101354.50
2022-10-20T06:49:21.788Z,101356.88
2022-10-20T06:51:50.098Z,101365.78
2022-10-20T06:54:18.827Z,101368.91
2022-10-20T06:56:46.943Z,101375.22
2022-10-20T06:59:15.759Z,101380.47
2022-10-20T07:01:43.878Z,101380.91
2022-10-20T07:04:15.363Z,101375.84
2022-10-20T07:06:46.565Z,101388.31
2022-10-20T07:09:19.015Z,101379.81
2022-10-20T07:11:51.938Z,101376.97
2022-10-20T07:14:20.433Z,101375.03
2022-10-20T07:16:48.621Z,101370.06
2022-10-20T07:19:17.146Z,101377.56
2022-10-20T07:21:45.891Z,101379.13
2022-10-20T07:24:15.771Z,101379.53
2022-10-20T07:26:44.315Z,101375.88
2022-10-20T07:29:14.846Z,101372.06
2022-10-20T07:31:45.525Z,101372.84
2022-10-20T07:34:31.210Z,101374.72
2022-10-20T07:36:59.816Z,101368.94
2022-10-20T07:39:28.247Z,101369.16
2022-10-20T07:41:56.207Z,101373.38
2022-10-20T07:44:24.579Z,101372.28
2022-10-20T07:46:52.561Z,101372.56
2022-10-20T07:52:09.111Z,101378.03
2022-10-20T07:54:37.431Z,101375.84
2022-10-20T07:57:05.386Z,101383.34
2022-10-20T07:59:33.667Z,101384.59
2022-10-20T08:02:01.882Z,101383.06
2022-10-20T08:04:32.030Z,101378.41
2022-10-20T08:07:00.975Z,101391.69
2022-10-20T08:09:29.334Z,101394.47
2022-10-20T08:11:57.473Z,101398.53
2022-10-20T08:14:27.536Z,101403.91
2022-10-20T08:16:58.253Z,101406.28
2022-10-20T08:22:20.242Z,101401.00
2022-10-20T08:24:48.482Z,101397.19
2022-10-20T08:27:16.507Z,101385.91
2022-10-20T08:29:50.913Z,101382.97
2022-10-20T08:32:28.884Z,101391.44
2022-10-20T08:34:57.222Z,101393.38
2022-10-20T08:37:25.635Z,101402.50
2022-10-20T08:39:53.854Z,101392.31
2022-10-20T08:42:22.333Z,101405.25
2022-10-20T08:44:51.433Z,101403.47
2022-10-20T08:47:33.599Z,101398.84
2022-10-20T08:50:10.004Z,101399.34
2022-10-20T08:52:41.641Z,101406.34
2022-10-20T08:58:01.957Z,101410.72
2022-10-20T09:00:31.579Z,101412.75
2022-10-20T09:03:24.585Z,101403.75
2022-10-20T09:06:01.912Z,101410.38
2022-10-20T09:08:32.997Z,101417.66
2022-10-20T09:11:03.387Z,101423.19
2022-10-20T09:13:33.094Z,101422.38
2022-10-20T09:16:06.234Z,101425.53
2022-10-20T09:18:35.387Z,101416.25
2022-10-20T09:21:13.815Z,101429.03
2022-10-20T09:23:45.867Z,101427.84
2022-10-20T09:26:45.049Z,101420.53
2022-10-20T09:29:14.447Z,101408.03
2022-10-20T09:31:50.153Z,101408.03
2022-10-20T09:34:24.331Z,101411.56
2022-10-20T09:37:13.811Z,101410.78
2022-10-20T09:39:55.720Z,101412.75
2022-10-20T09:42:28.329Z,101413.81
2022-10-20T09:45:01.732Z,101406.88
2022-10-20T09:47:30.425Z,101412.31
2022-10-20T09:50:02.464Z,101416.03
2022-10-20T09:52:38.417Z,101414.28
2022-10-20T09:55:30.895Z,101408.81
2022-10-20T09:58:02.113Z,101402.53
2022-10-20T10:00:47.335Z,101397.59
2022-10-20T10:03:22.754Z,101397.94
2022-10-20T10:05:53.748Z,101401.47
2022-10-20T10:08:24.198Z,101401.97
2022-10-20T10:11:05.544Z,101398.94
2022-10-20T10:13:41.906Z,101402.34
2022-10-20T10:16:15.606Z,101404.94
2022-10-20T10:19:03.017Z,101402.31
2022-10-20T10:21:45.884Z,101402.56
2022-10-20T10:24:37.345Z,101401.47
2022-10-20T10:27:19.277Z,101390.41
2022-10-20T10:29:49.196Z,101395.25
2022-10-20T10:32:26.800Z,101391.56
2022-10-20T10:34:55.196Z,101393.75
2022-10-20T10:37:23.755Z,101390.94
2022-10-20T10:39:51.888Z,101392.03
2022-10-20T10:42:45.515Z,101394.78
2022-10-20T10:45:34.758Z,101394.88
2022-10-20T10:48:21.313Z,101394.69
2022-10-20T10:51:22.115Z,101381.53
2022-10-20T10:54:02.941Z,101386.03
2022-10-20T10:56:45.779Z,101372.63
2022-10-20T10:59:37.534Z,101369.00
2022-10-20T11:02:33.734Z,101371.03
2022-10-20T11:05:11.254Z,101361.06
2022-10-20T11:08:33.143Z,101352.06
2022-10-20T11:11:16.414Z,101351.56
2022-10-20T11:13:50.725Z,101349.34
2022-10-20T11:16:31.715Z,101352.59
2022-10-20T11:19:08.529Z,101342.81
2022-10-20T11:21:46.215Z,101348.41
2022-10-20T11:24:53.223Z,101334.78
2022-10-20T11:27:26.674Z,101334.88
2022-10-20T11:30:15.256Z,101335.63
2022-10-20T11:32:51.950Z,101332.22
2022-10-20T11:35:38.798Z,101333.47
2022-10-20T11:38:19.063Z,101326.81
2022-10-20T11:41:01.224Z,101324.09
2022-10-20T11:43:46.685Z,101324.34
2022-10-20T11:46:22.154Z,101320.94
2022-10-20T11:48:56.642Z,101310.16
2022-10-20T11:51:32.403Z,101303.75
2022-10-20T11:54:14.616Z,101300.16
2022-10-20T11:56:48.674Z,101307.63
2022-10-20T11:59:30.031Z,101311.88
2022-10-20T12:02:33.202Z,101302.47
2022-10-20T12:05:10.197Z,101299.03
2022-10-20T12:08:28.866Z,101291.72
2022-10-20T12:11:10.394Z,101290.31
2022-10-20T12:13:45.554Z,101284.41
2022-10-20T12:16:33.805Z,101279.75
2022-10-20T12:19:15.938Z,101267.09
2022-10-20T12:22:16.343Z,101264.91
2022-10-20T12:25:04.435Z,101256.34
2022-10-20T12:27:33.154Z,101251.28
2022-10-20T12:30:05.083Z,101241.09
2022-10-20T12:32:58.975Z,101239.81
2022-10-20T12:35:30.015Z,101242.94
2022-10-20T12:38:04.570Z,101231.75
2022-10-20T12:40:52.210Z,101235.91
2022-10-20T12:43:49.302Z,101229.34
2022-10-20T12:46:28.438Z,101231.25
2022-10-20T12:49:00.572Z,101229.50
2022-10-20T12:51:55.590Z,101235.44
2022-10-20T12:54:39.557Z,101230.03
2022-10-20T12:57:38.509Z,101221.25
2022-10-20T13:00:28.543Z,101228.69
2022-10-20T13:02:58.981Z,101227.94
2022-10-20T13:05:42.160Z,101226.16
2022-10-20T13:08:36.720Z,101219.16
2022-10-20T13:11:23.297Z,101216.16
2022-10-20T13:14:12.344Z,101213.88
2022-10-20T13:17:09.732Z,101218.66
2022-10-20T13:19:52.233Z,101215.50
2022-10-20T13:22:47.073Z,101221.81
2022-10-20T13:25:20.315Z,101213.38
2022-10-20T13:27:50.001Z,101205.97
2022-10-20T13:30:23.590Z,101209.53
2022-10-20T13:33:33.821Z,101213.91
2022-10-20T13:36:02.907Z,101209.72
2022-10-20T13:39:03.076Z,101206.00
2022-10-20T13:41:45.849Z,101207.47
2022-10-20T13:44:55.111Z,101214.66
2022-10-20T13:47:57.498Z,101214.56
2022-10-20T13:50:35.520Z,101209.13
2022-10-20T13:53:13.676Z,101211.53
2022-10-20T13:56:20.928Z,101212.94
2022-10-20T13:59:15.467Z,101211.97
2022-10-20T14:01:49.166Z,101214.78
2022-10-20T14:04:37.757Z,101204.03
2022-10-20T14:07:13.908Z,101217.66
2022-10-20T14:09:46.592Z,101210.84
2022-10-20T14:12:23.757Z,101212.13
2022-10-20T14:15:01.404Z,101216.06
2022-10-20T14:17:30.309Z,101216.22
2022-10-20T14:20:21.798Z,101215.97
2022-10-20T14:22:51.417Z,101218.28
2022-10-20T14:25:21.659Z,101215.97
2022-10-20T14:27:53.752Z,101217.56
2022-10-20T14:30:22.655Z,101202.47
2022-10-20T14:32:51.847Z,101211.56
2022-10-20T14:35:39.858Z,101209.59
2022-10-20T14:38:21.037Z,101215.03
2022-10-20T14:41:00.010Z,101211.75
2022-10-20T14:43:41.843Z,101211.50
2022-10-20T14:46:23.090Z,101220.97
2022-10-20T14:48:52.042Z,101215.09
2022-10-20T14:51:32.695Z,101218.44
2022-10-20T14:54:19.972Z,101212.66
2022-10-20T14:57:19.237Z,101211.75
2022-10-20T14:59:56.162Z,101210.69
2022-10-20T15:02:27.864Z,101210.19
2022-10-20T15:04:55.988Z,101202.31
2022-10-20T15:07:33.161Z,101203.75
2022-10-20T15:10:16.113Z,101205.78
2022-10-20T15:12:48.610Z,101201.19
2022-10-20T15:15:19.140Z,101203.06
2022-10-20T15:17:48.583Z,101203.34
2022-10-20T15:20:34.747Z,101190.03
2022-10-20T15:23:22.434Z,101189.06
2022-10-20T15:26:10.881Z,101192.03
2022-10-20T15:28:44.193Z,101190.28
2022-10-20T15:31:24.605Z,101191.91
2022-10-20T15:33:54.596Z,101184.91
2022-10-20T15:36:29.765Z,101181.16
2022-10-20T15:38:58.928Z,101181.84
2022-10-20T15:41:30.749Z,101176.75
2022-10-20T15:44:19.576Z,101180.75
2022-10-20T15:46:49.792Z,101182.72
2022-10-20T15:49:18.018Z,101183.16
2022-10-20T15:51:47.559Z,101176.19
2022-10-20T15:54:18.652Z,101177.00
2022-10-20T15:56:46.837Z,101178.53
2022-10-20T15:59:15.152Z,101172.28
2022-10-20T16:01:43.175Z,101169.50
2022-10-20T16:04:26.473Z,101177.34
2022-10-20T16:06:57.905Z,101176.16
2022-10-20T16:09:28.804Z,101177.44
2022-10-20T16:11:57.026Z,101172.31
2022-10-20T16:14:25.439Z,101176.66
2022-10-20T16:16:53.495Z,101185.63
2022-10-20T16:19:21.872Z,101185.63
2022-10-20T16:21:49.889Z,101180.59
2022-10-20T16:24:18.077Z,101186.41
2022-10-20T16:26:45.927Z,101189.53
2022-10-20T16:29:14.176Z,101186.03
2022-10-20T16:31:42.172Z,101180.16
2022-10-20T16:34:10.371Z,101180.19
2022-10-20T16:36:38.585Z,101172.00
2022-10-20T16:39:06.690Z,101184.09
2022-10-20T16:41:34.686Z,101183.31
2022-10-20T16:44:02.889Z,101181.75
2022-10-20T16:46:30.788Z,101184.88
2022-10-20T16:48:58.960Z,101177.06
2022-10-20T16:51:27.343Z,101182.16
2022-10-20T16:53:59.503Z,101178.66
2022-10-20T16:56:30.700Z,101187.22
2022-10-20T16:58:58.957Z,101184.09
2022-10-20T17:01:26.920Z,101186.75
2022-10-20T17:03:55.448Z,101182.50
2022-10-20T17:06:25.888Z,101180.53
2022-10-20T17:08:55.211Z,101178.63
2022-10-20T17:11:27.037Z,101189.88
2022-10-20T17:13:55.806Z,101186.38
2022-10-20T17:16:32.483Z,101186.38
2022-10-20T17:19:02.447Z,101188.28
2022-10-20T17:21:31.721Z,101195.66
2022-10-20T17:24:00.497Z,101205.81
2022-10-20T17:26:32.875Z,101203.84
2022-10-20T17:29:02.060Z,101199.97
2022-10-20T17:31:30.779Z,101195.28
2022-10-20T17:33:59.882Z,101201.00
2022-10-20T17:36:29.651Z,101197.09
2022-10-20T17:39:01.096Z,101194.38
2022-10-20T17:41:30.507Z,101184.63
2022-10-20T17:44:03.442Z,101182.63
2022-10-20T17:46:31.431Z,101181.56
2022-10-20T17:49:01.821Z,101173.66
2022-10-20T17:51:33.682Z,101183.78
2022-10-20T17:54:03.475Z,101186.06
2022-10-20T17:56:36.007Z,101194.59
2022-10-20T17:59:07.632Z,101198.50
2022-10-20T18:01:39.006Z,101195.38
2022-10-20T18:04:08.354Z,101194.94
2022-10-20T18:06:37.382Z,101191.47
2022-10-20T18:09:13.608Z,101197.19
2022-10-20T18:11:44.793Z,101198.38
2022-10-20T18:14:13.001Z,101196.44
2022-10-20T18:16:41.610Z,101205.00
2022-10-20T18:19:15.648Z,101207.53
2022-10-20T18:21:44.405Z,101205.56
2022-10-20T18:24:14.429Z,101207.53
2022-10-20T18:26:43.108Z,101214.53
2022-10-20T18:29:12.936Z,101218.38
2022-10-20T18:31:42.320Z,101216.88
2022-10-20T18:34:17.486Z,101217.25
2022-10-20T18:36:46.364Z,101216.06
2022-10-20T18:39:15.713Z,101215.78
2022-10-20T18:41:45.654Z,101207.94
2022-10-20T18:44:19.034Z,101209.09
2022-10-20T18:46:47.851Z,101211.78
2022-10-20T18:49:20.573Z,101216.94
2022-10-20T18:51:48.428Z,101212.50
2022-10-20T18:54:18.028Z,101211.72
2022-10-20T18:56:46.683Z,101213.75
2022-10-20T18:59:16.560Z,101207.88
2022-10-20T19:01:45.298Z,101216.72
2022-10-20T19:04:13.848Z,101207.78
2022-10-20T19:06:47.127Z,101202.72
2022-10-20T19:09:18.486Z,101196.53
2022-10-20T19:11:47.464Z,101202.25
2022-10-20T19:14:16.692Z,101207.84
2022-10-20T19:16:47.099Z,101200.03
2022-10-20T19:19:16.102Z,101188.00
2022-10-20T19:21:44.552Z,101186.78
2022-10-20T19:24:17.307Z,101191.81
2022-10-20T19:26:57.129Z,101182.47
2022-10-20T19:29:37.053Z,101182.44
2022-10-20T19:32:07.266Z,101187.09
2022-10-20T19:34:38.282Z,101183.22
2022-10-20T19:37:07.765Z,101183.03
2022-10-20T19:39:39.849Z,101187.13
2022-10-20T19:42:09.872Z,101199.00
2022-10-20T19:44:38.832Z,101200.50
2022-10-20T19:47:08.761Z,101204.19
2022-10-20T19:49:38.157Z,101212.84
2022-10-20T19:52:07.430Z,101199.22
2022-10-20T19:54:36.134Z,101203.22
2022-10-20T19:57:06.792Z,101211.22
2022-10-20T19:59:35.422Z,101220.97
2022-10-20T20:02:04.006Z,101215.06
2022-10-20T20:04:32.728Z,101217.34
2022-10-20T20:07:02.393Z,101215.66
2022-10-20T20:09:31.488Z,101212.59
2022-10-20T20:11:59.471Z,101207.59
2022-10-20T20:14:27.834Z,101200.88
2022-10-20T20:16:55.897Z,101212.91
2022-10-20T20:19:24.316Z,101214.84
2022-10-20T20:21:52.706Z,101215.97
2022-10-20T20:24:20.996Z,101224.09
2022-10-20T20:26:50.387Z,101220.19
2022-10-20T20:29:18.528Z,101228.13
2022-10-20T20:31:48.286Z,101213.06
2022-10-20T20:34:17.927Z,101224.28
2022-10-20T20:36:45.966Z,101221.94
2022-10-20T20:39:14.186Z,101219.16
2022-10-20T20:41:43.168Z,101227.72
2022-10-20T20:44:11.413Z,101216.38
2022-10-20T20:46:39.511Z,101221.44
2022-10-20T20:49:07.687Z,101223.38
2022-10-20T20:51:35.678Z,101225.19
2022-10-20T20:54:04.599Z,101232.00
2022-10-20T20:56:33.169Z,101224.09
2022-10-20T20:59:10.726Z,101221.13
2022-10-20T22:45:42.703Z,101198.22
2022-10-20T22:49:26.079Z,101185.09
2022-10-20T23:42:14.277Z,101156.13
